Accueil
METAR-TAF:

METAR-TAF

Aéroports :

Aupaluk, Québec, Canada

latitude: 59-17-48N, longitude: 069-35-59W, altitude: 35 m

Observation

Le bulletin a été fait il y a 10 heures et 53 minutes, à 22:00 UTC
Vent 4 kt de ouest/sud-ouest
Température -18°C
Humidité 77%
Pression 1013 hPa
Visibilité: 24.1 km
Quelques nuages à une hauteur de 24000 ft

METAR: CYLA 162200Z 24004KT 15SM FEW240 M18/M21 A2992 RMK CI2 SNW CVR/MUCH LOOSE LAST STFD OB/NEXT 171300Z SLP136

Heure: 03:53 (08:53 UTC)


TAF: absent

Observations et prévisions météorologiques de plus de 4000 aéroports (messages METAR et TAF).

Les stations disponibles sont représentées par des disques jaunes et rouges sur la carte.

Passer la souris dessus pour voir le nom de la station.

Cliquer dessus pour voir les observations et prévisions météorologiques.

Pour changer de carte: cliquez sur les boutons verts avec une croix noire pour zoomer, sur le bouton vert avec un tiret pour effectuer un zoom arrière, ou sur les flèches vertes pour les cartes adjacentes.


METAR-TAF: